createdAt,value
2018-06-18T00:00:51.747Z,78.77
2018-06-18T00:01:54.242Z,77.51
2018-06-18T00:02:52.240Z,76.07
2018-06-18T00:03:52.242Z,75.31
2018-06-18T00:04:52.242Z,75.12
2018-06-18T00:05:54.741Z,75.50
2018-06-18T00:06:52.743Z,74.26
2018-06-18T00:07:52.742Z,74.44
2018-06-18T00:08:52.743Z,75.60
2018-06-18T00:09:53.242Z,75.70
2018-06-18T00:10:54.686Z,76.07
2018-06-18T00:11:53.246Z,75.98
2018-06-18T00:12:53.242Z,75.98
2018-06-18T00:13:53.744Z,75.70
2018-06-18T00:14:53.744Z,75.79
2018-06-18T00:15:53.095Z,74.83
2018-06-18T00:16:53.740Z,74.44
2018-06-18T00:17:53.365Z,75.40
2018-06-18T00:18:53.467Z,76.56
2018-06-18T00:19:54.242Z,76.65
2018-06-18T00:20:54.242Z,76.17
2018-06-18T00:21:54.750Z,75.50
2018-06-18T00:22:53.967Z,75.60
2018-06-18T00:23:54.743Z,74.64
2018-06-18T00:24:54.742Z,74.44
2018-06-18T00:25:55.242Z,73.93
2018-06-18T00:26:55.242Z,73.77
2018-06-18T00:28:16.242Z,73.68
2018-06-18T00:28:55.242Z,73.93
2018-06-18T00:29:55.742Z,74.12
2018-06-18T00:30:55.740Z,74.22
2018-06-18T00:31:55.748Z,74.35
2018-06-18T00:32:55.752Z,74.02
2018-06-18T00:33:56.243Z,73.55
2018-06-18T00:34:56.243Z,73.65
2018-06-18T00:35:56.251Z,74.02
2018-06-18T00:36:56.276Z,74.22
2018-06-18T00:37:56.742Z,74.60
2018-06-18T00:38:56.742Z,74.76
2018-06-18T00:39:56.097Z,75.14
2018-06-18T00:40:56.743Z,75.52
2018-06-18T00:41:57.256Z,75.90
2018-06-18T00:42:57.242Z,76.15
2018-06-18T00:43:57.243Z,76.06
2018-06-18T00:44:57.244Z,75.77
2018-06-18T00:45:57.751Z,76.06
2018-06-18T00:46:59.741Z,76.15
2018-06-18T00:47:57.742Z,76.82
2018-06-18T00:48:57.743Z,76.82
2018-06-18T00:49:58.244Z,76.98
2018-06-18T00:50:57.466Z,77.17
2018-06-18T00:51:58.243Z,77.84
2018-06-18T00:53:01.675Z,77.65
2018-06-18T00:53:58.743Z,77.84
2018-06-18T00:54:58.743Z,78.70
2018-06-18T00:55:58.750Z,78.03
2018-06-18T00:56:58.742Z,78.51
2018-06-18T00:57:59.242Z,78.32
2018-06-18T00:58:59.244Z,78.03
2018-06-18T00:59:58.589Z,78.61
2018-06-18T01:01:20.262Z,78.32
2018-06-18T01:01:58.739Z,78.42
2018-06-18T01:02:58.851Z,78.70
2018-06-18T01:03:59.743Z,79.18
2018-06-18T01:04:59.742Z,80.04
2018-06-18T01:05:59.743Z,79.66
2018-06-18T01:07:00.242Z,80.43
2018-06-18T01:08:15.177Z,80.52
2018-06-18T01:09:00.242Z,80.24
2018-06-18T01:10:00.242Z,80.43
2018-06-18T01:11:00.742Z,80.24
2018-06-18T01:12:21.743Z,80.81
2018-06-18T01:13:00.750Z,81.15
2018-06-18T01:14:00.742Z,80.90
2018-06-18T01:15:22.242Z,81.10
2018-06-18T01:16:02.240Z,80.33
2018-06-18T01:17:00.592Z,80.81
2018-06-18T01:18:01.238Z,80.52
2018-06-18T01:19:01.742Z,80.24
2018-06-18T01:20:01.741Z,80.71
2018-06-18T01:21:22.742Z,80.04
2018-06-18T01:22:07.748Z,80.04
2018-06-18T01:23:23.245Z,80.14
2018-06-18T01:24:23.242Z,80.81
2018-06-18T01:25:09.239Z,81.10
2018-06-18T01:26:03.183Z,81.29
2018-06-18T01:27:04.753Z,80.81
2018-06-18T01:28:16.743Z,81.29
2018-06-18T01:29:23.742Z,81.29
2018-06-18T01:30:02.742Z,81.77
2018-06-18T01:31:03.746Z,81.77
2018-06-18T01:32:03.251Z,81.57
2018-06-18T01:33:17.242Z,81.86
2018-06-18T01:34:24.247Z,81.25
2018-06-18T01:35:24.242Z,81.92
2018-06-18T01:36:04.708Z,81.54
2018-06-18T01:37:03.752Z,81.67
2018-06-18T01:38:03.741Z,81.38
2018-06-18T01:39:24.741Z,81.25
2018-06-18T01:40:04.242Z,81.15
2018-06-18T01:41:25.242Z,81.20
2018-06-18T01:42:04.244Z,80.77
2018-06-18T01:43:05.241Z,81.05
2018-06-18T01:44:04.744Z,80.48
2018-06-18T01:45:04.742Z,81.34
2018-06-18T01:46:04.742Z,81.44
2018-06-18T01:47:04.742Z,80.96
2018-06-18T01:48:05.242Z,81.25
2018-06-18T01:49:05.242Z,81.05
2018-06-18T01:50:26.242Z,80.67
2018-06-18T01:51:05.242Z,80.38
2018-06-18T01:52:04.841Z,80.29
2018-06-18T01:53:05.745Z,79.96
2018-06-18T01:54:05.749Z,80.16
2018-06-18T01:55:05.742Z,79.77
2018-06-18T01:56:06.244Z,80.16
2018-06-18T01:57:06.249Z,81.11
2018-06-18T01:58:06.247Z,81.40
2018-06-18T01:59:05.716Z,81.02
2018-06-18T02:00:06.743Z,80.82
2018-06-18T02:01:06.742Z,81.21
2018-06-18T02:02:06.742Z,80.82
2018-06-18T02:03:06.749Z,81.21
2018-06-18T02:04:08.241Z,80.92
2018-06-18T02:05:28.241Z,81.68
2018-06-18T02:06:07.251Z,81.59
2018-06-18T02:07:07.242Z,82.35
2018-06-18T02:08:07.743Z,82.83
2018-06-18T02:09:07.742Z,82.93
2018-06-18T02:10:07.746Z,82.74
2018-06-18T02:11:07.742Z,82.83
2018-06-18T02:12:08.241Z,82.74
2018-06-18T02:13:07.466Z,82.64
2018-06-18T02:14:08.250Z,82.45
2018-06-18T02:15:29.258Z,82.93
2018-06-18T02:16:09.751Z,82.54
2018-06-18T02:17:08.782Z,82.35
2018-06-18T02:18:08.137Z,82.54
2018-06-18T02:19:08.740Z,83.50
2018-06-18T02:20:08.338Z,82.74
2018-06-18T02:21:09.242Z,81.88
2018-06-18T02:22:08.588Z,82.45
2018-06-18T02:23:09.237Z,82.74
2018-06-18T02:24:09.805Z,82.93
2018-06-18T02:25:11.174Z,82.17
2018-06-18T02:26:09.742Z,82.26
2018-06-18T02:27:09.742Z,82.40
2018-06-18T02:28:09.747Z,82.87
2018-06-18T02:29:12.674Z,81.54
2018-06-18T02:30:10.242Z,81.05
2018-06-18T02:31:10.243Z,81.73
2018-06-18T02:32:10.243Z,81.82
2018-06-18T02:33:31.742Z,81.63
2018-06-18T02:34:10.746Z,81.44
2018-06-18T02:35:10.742Z,81.34
2018-06-18T02:36:10.742Z,81.44
2018-06-18T02:37:11.252Z,80.96
2018-06-18T02:38:11.249Z,81.05
2018-06-18T02:39:11.242Z,80.77
2018-06-18T02:40:11.245Z,80.58
2018-06-18T02:41:11.747Z,80.10
2018-06-18T02:42:11.743Z,80.77
2018-06-18T02:43:11.742Z,80.29
2018-06-18T02:44:11.741Z,81.15
2018-06-18T02:45:12.242Z,81.73
2018-06-18T02:48:04.624Z,82.30
2018-06-18T02:48:43.631Z,82.20
2018-06-18T02:49:43.631Z,82.40
2018-06-18T02:52:16.376Z,82.11
2018-06-18T02:53:14.719Z,82.30
2018-06-18T02:54:15.385Z,81.54
2018-06-18T02:55:15.879Z,80.87
2018-06-18T02:56:15.889Z,81.25
2018-06-18T02:57:15.882Z,81.25
2018-06-18T02:58:15.879Z,81.15
2018-06-18T02:59:16.377Z,81.15
2018-06-18T03:02:08.757Z,80.96
2018-06-18T03:02:47.755Z,81.73
2018-06-18T03:03:47.754Z,81.63
2018-06-18T03:04:48.255Z,81.54
2018-06-18T03:05:48.258Z,81.63
2018-06-18T03:06:48.261Z,81.54
2018-06-18T03:07:48.264Z,81.34
2018-06-18T03:08:47.858Z,81.73
2018-06-18T03:09:48.754Z,81.73
2018-06-18T03:10:48.756Z,81.92
2018-06-18T03:11:48.760Z,81.63
2018-06-18T03:12:50.186Z,81.92
2018-06-18T03:13:49.754Z,81.63
2018-06-18T03:14:49.263Z,82.11
2018-06-18T03:15:49.254Z,82.59
2018-06-18T03:16:49.755Z,82.30
2018-06-18T03:17:49.764Z,82.20
2018-06-18T03:18:49.755Z,81.63
2018-06-18T03:19:49.757Z,82.20
2018-06-18T03:21:11.255Z,81.63
2018-06-18T03:22:11.260Z,82.30
2018-06-18T03:22:49.611Z,81.92
2018-06-18T03:23:50.254Z,82.40
2018-06-18T03:24:50.765Z,82.01
2018-06-18T03:25:50.000Z,82.78
2018-06-18T03:26:50.104Z,82.87
2018-06-18T03:27:52.754Z,82.97
2018-06-18T03:28:57.254Z,82.87
2018-06-18T03:29:51.256Z,83.16
2018-06-18T03:30:51.255Z,82.97
2018-06-18T03:31:52.185Z,82.59
2018-06-18T03:33:12.754Z,82.78
2018-06-18T03:33:51.755Z,83.16
2018-06-18T03:34:51.753Z,83.36
2018-06-18T03:35:51.758Z,83.36
2018-06-18T03:36:52.253Z,82.97
2018-06-18T03:37:52.259Z,82.40
2018-06-18T03:38:52.254Z,82.78
2018-06-18T03:39:52.253Z,83.45
2018-06-18T03:40:54.755Z,83.54
2018-06-18T03:41:52.754Z,83.64
2018-06-18T03:42:52.773Z,83.64
2018-06-18T03:43:52.753Z,83.06
2018-06-18T03:45:14.253Z,83.64
2018-06-18T03:45:53.255Z,83.36
2018-06-18T03:47:14.253Z,83.64
2018-06-18T03:47:53.259Z,83.93
2018-06-18T03:48:55.751Z,83.73
2018-06-18T03:49:52.974Z,83.45
2018-06-18T03:50:53.753Z,83.54
2018-06-18T03:51:53.758Z,83.45
2018-06-18T03:52:54.253Z,82.87
2018-06-18T03:53:54.258Z,83.06
2018-06-18T03:54:54.253Z,83.06
2018-06-18T03:55:55.256Z,82.59
2018-06-18T03:58:25.279Z,82.53
2018-06-18T03:59:26.001Z,81.86
2018-06-18T04:00:27.996Z,82.34
2018-06-18T04:01:32.496Z,82.34
2018-06-18T04:02:28.502Z,81.86
2018-06-18T04:03:26.502Z,82.06
2018-06-18T04:04:26.507Z,82.53
2018-06-18T04:05:27.012Z,82.24
2018-06-18T04:06:29.929Z,82.34
2018-06-18T04:07:26.997Z,82.82
2018-06-18T04:08:26.995Z,82.15
2018-06-18T04:09:28.495Z,82.63
2018-06-18T04:10:26.725Z,82.06
2018-06-18T04:11:27.496Z,82.53
2018-06-18T04:12:28.495Z,82.34
2018-06-18T04:13:27.996Z,82.92
2018-06-18T04:14:27.996Z,82.15
2018-06-18T04:15:27.996Z,82.34
2018-06-18T04:16:27.996Z,82.24
2018-06-18T04:17:28.497Z,81.71
2018-06-18T04:18:28.496Z,81.10
2018-06-18T04:19:28.550Z,81.86
2018-06-18T04:20:28.504Z,81.96
2018-06-18T04:21:50.001Z,82.48
2018-06-18T04:22:28.996Z,81.86
2018-06-18T04:23:29.995Z,81.90
2018-06-18T04:24:29.006Z,82.96
2018-06-18T04:25:29.496Z,82.67
2018-06-18T04:26:32.929Z,82.82
2018-06-18T04:27:29.496Z,83.05
2018-06-18T04:28:31.929Z,83.05
2018-06-18T04:29:50.995Z,82.76
2018-06-18T04:32:02.687Z,82.00
2018-06-18T04:33:02.717Z,83.05
2018-06-18T04:34:01.263Z,82.67
2018-06-18T04:35:01.750Z,82.86
2018-06-18T04:36:02.721Z,82.67
2018-06-18T04:37:01.071Z,82.29
2018-06-18T04:38:01.753Z,82.09
2018-06-18T04:39:01.841Z,81.71
2018-06-18T04:40:02.261Z,81.62
2018-06-18T04:41:23.255Z,81.13
2018-06-18T04:42:03.254Z,80.94
2018-06-18T04:43:08.255Z,80.51
2018-06-18T04:44:02.755Z,80.89
2018-06-18T04:45:08.755Z,81.13
2018-06-18T04:46:02.756Z,80.12
2018-06-18T04:47:02.755Z,80.12
2018-06-18T04:48:09.258Z,81.27
2018-06-18T04:49:04.687Z,80.79
2018-06-18T04:50:03.255Z,80.60
2018-06-18T04:51:02.742Z,80.60
2018-06-18T04:52:03.751Z,80.41
2018-06-18T04:53:02.982Z,80.51
2018-06-18T04:54:03.759Z,80.41
2018-06-18T04:55:03.754Z,80.03
2018-06-18T04:56:04.255Z,79.36
2018-06-18T04:57:25.291Z,80.12
2018-06-18T04:58:03.650Z,79.83
2018-06-18T04:59:04.255Z,77.63
2018-06-18T05:01:38.012Z,78.34
2018-06-18T05:02:36.018Z,77.00
2018-06-18T05:03:36.021Z,76.23
2018-06-18T05:04:36.517Z,77.38
2018-06-18T05:05:36.512Z,77.00
2018-06-18T05:06:36.517Z,76.81
2018-06-18T05:07:36.527Z,76.90
2018-06-18T05:10:08.285Z,75.18
2018-06-18T05:11:08.287Z,76.07
2018-06-18T05:12:08.294Z,77.19
2018-06-18T05:13:07.889Z,75.65
2018-06-18T05:14:08.785Z,75.70
2018-06-18T05:15:08.173Z,76.14
2018-06-18T05:16:08.788Z,76.27
2018-06-18T05:17:11.285Z,76.94
2018-06-18T05:18:08.508Z,76.75
2018-06-18T05:19:09.285Z,76.94
2018-06-18T05:20:08.767Z,76.65
2018-06-18T05:21:09.796Z,74.73
2018-06-18T05:22:09.786Z,75.70
2018-06-18T05:23:09.718Z,77.13
2018-06-18T05:24:09.786Z,76.56
2018-06-18T05:25:10.293Z,76.17
2018-06-18T05:26:10.286Z,75.12
2018-06-18T05:27:10.286Z,75.40
2018-06-18T05:28:10.286Z,75.31
2018-06-18T05:29:09.885Z,74.16
2018-06-18T05:30:10.787Z,73.30
2018-06-18T05:31:10.789Z,73.10
2018-06-18T05:32:10.790Z,74.10
2018-06-18T05:33:17.289Z,74.16
2018-06-18T05:34:32.287Z,74.26
2018-06-18T05:35:11.288Z,74.58
2018-06-18T05:36:12.754Z,74.44
2018-06-18T05:38:57.020Z,74.39
2018-06-18T05:39:43.022Z,74.39
2018-06-18T05:41:04.953Z,74.01
2018-06-18T05:41:43.529Z,73.91
2018-06-18T05:42:45.005Z,72.75
2018-06-18T05:43:57.554Z,73.14
2018-06-18T05:44:58.519Z,73.91
2018-06-18T05:46:04.521Z,74.29
2018-06-18T05:48:14.548Z,74.01
2018-06-18T05:49:36.286Z,74.01
2018-06-18T05:50:15.288Z,74.19
2018-06-18T05:52:47.046Z,71.64
2018-06-18T05:55:39.566Z,70.29
2018-06-18T05:56:18.563Z,70.49
2018-06-18T05:57:25.996Z,71.64
2018-06-18T05:59:50.304Z,70.07
2018-06-18T06:00:50.314Z,70.07
2018-06-18T06:01:52.313Z,71.64
2018-06-18T06:02:49.918Z,71.73
2018-06-18T06:03:50.812Z,71.93
2018-06-18T06:05:11.817Z,70.10
2018-06-18T06:05:50.809Z,70.68
2018-06-18T06:06:55.241Z,72.06
2018-06-18T06:07:56.741Z,70.14
2018-06-18T06:08:51.319Z,70.23
2018-06-18T06:09:51.314Z,70.23
2018-06-18T06:11:12.812Z,69.66
2018-06-18T06:11:51.807Z,68.79
2018-06-18T06:12:53.263Z,69.37
2018-06-18T06:13:51.256Z,70.23
2018-06-18T06:16:29.527Z,68.12
2018-06-18T06:17:23.513Z,69.08
2018-06-18T06:18:23.521Z,67.35
2018-06-18T06:20:55.282Z,67.45
2018-06-18T06:21:55.284Z,67.83
2018-06-18T06:22:55.290Z,67.74
2018-06-18T06:23:55.775Z,67.83
2018-06-18T06:26:27.671Z,69.95
2018-06-18T06:27:27.676Z,70.81
2018-06-18T06:28:27.689Z,70.23
2018-06-18T06:29:28.186Z,71.19
2018-06-18T06:30:28.171Z,69.95
2018-06-18T06:31:28.174Z,68.89
2018-06-18T06:32:28.169Z,68.31
2018-06-18T06:33:28.165Z,69.37
2018-06-18T06:34:49.666Z,69.46
2018-06-18T06:35:28.666Z,70.23
2018-06-18T06:36:28.666Z,69.56
2018-06-18T06:37:28.673Z,69.66
2018-06-18T06:38:49.278Z,68.89
2018-06-18T06:39:29.176Z,68.31
2018-06-18T06:40:29.249Z,68.41
2018-06-18T06:41:28.589Z,70.14
2018-06-18T06:42:29.658Z,69.95
2018-06-18T06:43:28.779Z,70.14
2018-06-18T06:44:50.666Z,69.18
2018-06-18T06:45:50.666Z,70.72
2018-06-18T06:46:33.598Z,70.90
2018-06-18T06:47:59.154Z,70.81
2018-06-18T06:48:36.170Z,69.75
2018-06-18T06:51:01.702Z,70.04
2018-06-18T06:52:07.711Z,70.04
2018-06-18T06:53:07.709Z,70.90
2018-06-18T06:54:01.311Z,71.67
2018-06-18T06:55:03.205Z,69.56
2018-06-18T06:56:02.236Z,68.89
2018-06-18T06:57:02.209Z,68.60
2018-06-18T06:59:33.954Z,69.95
2018-06-18T07:00:54.330Z,69.95
2018-06-18T07:01:54.416Z,70.62
2018-06-18T07:02:57.468Z,71.77
2018-06-18T07:03:34.466Z,70.62
2018-06-18T07:04:48.467Z,70.27
2018-06-18T07:05:55.467Z,70.17
2018-06-18T07:06:34.472Z,69.60
2018-06-18T07:09:05.516Z,70.56
2018-06-18T07:10:05.619Z,70.65
2018-06-18T07:11:05.738Z,70.07
2018-06-18T07:12:05.839Z,69.50
2018-06-18T07:13:06.752Z,69.60
2018-06-18T07:14:27.726Z,68.63
2018-06-18T07:15:06.727Z,69.40
2018-06-18T07:16:28.239Z,70.17
2018-06-18T07:17:07.226Z,69.69
2018-06-18T07:18:21.227Z,70.37
2018-06-18T07:19:07.228Z,70.37
2018-06-18T07:20:21.728Z,68.25
2018-06-18T07:21:07.730Z,70.46
2018-06-18T07:22:07.727Z,69.40
2018-06-18T07:23:07.728Z,68.54
2018-06-18T07:24:08.227Z,68.25
2018-06-18T07:25:08.229Z,69.12
2018-06-18T07:26:08.263Z,69.53
2018-06-18T07:27:08.232Z,69.89
2018-06-18T07:28:07.838Z,68.63
2018-06-18T07:30:40.211Z,69.02
2018-06-18T07:32:01.114Z,68.35
2018-06-18T07:32:40.106Z,67.77
2018-06-18T07:33:39.727Z,68.35
2018-06-18T07:34:44.037Z,68.54
2018-06-18T07:36:03.080Z,69.21
2018-06-18T07:38:12.210Z,70.11
2018-06-18T07:39:17.150Z,71.08
2018-06-18T07:40:12.221Z,70.40
2018-06-18T07:41:14.718Z,67.80
2018-06-18T07:42:12.718Z,67.90
2018-06-18T07:45:05.229Z,69.53
2018-06-18T07:45:47.171Z,71.75
2018-06-18T07:46:44.688Z,71.08
2018-06-18T07:48:07.738Z,68.67
2018-06-18T07:48:50.742Z,66.27
2018-06-18T07:49:44.745Z,66.36
2018-06-18T07:50:44.735Z,66.74
2018-06-18T07:51:44.288Z,68.67
2018-06-18T07:53:06.235Z,68.76
2018-06-18T07:53:47.234Z,67.83
2018-06-18T07:54:45.236Z,68.70
2018-06-18T07:55:45.235Z,67.07
2018-06-18T07:56:44.873Z,68.60
2018-06-18T07:57:51.735Z,67.93
2018-06-18T07:58:51.739Z,67.07
2018-06-18T08:00:12.744Z,67.35
2018-06-18T08:00:46.237Z,69.57
2018-06-18T08:01:46.235Z,70.34
2018-06-18T08:02:46.239Z,69.76
2018-06-18T08:03:46.246Z,66.97
2018-06-18T08:05:00.735Z,68.13
2018-06-18T08:05:46.737Z,68.19
2018-06-18T08:07:47.737Z,67.55
2018-06-18T08:10:17.763Z,68.22
2018-06-18T08:11:17.868Z,67.07
2018-06-18T08:12:18.518Z,67.74
2018-06-18T08:13:20.463Z,66.30
2018-06-18T08:14:18.989Z,66.36
2018-06-18T08:15:20.989Z,65.81
2018-06-18T08:16:20.444Z,65.24
2018-06-18T08:18:49.998Z,67.55
2018-06-18T08:19:50.711Z,66.10
2018-06-18T08:21:12.716Z,66.88
2018-06-18T08:21:53.216Z,66.39
2018-06-18T08:22:50.442Z,65.05
2018-06-18T08:23:50.687Z,66.10
2018-06-18T08:24:51.211Z,66.20
2018-06-18T08:25:50.686Z,67.19
2018-06-18T08:26:51.720Z,66.42
2018-06-18T08:27:57.722Z,64.95
2018-06-18T08:28:51.711Z,66.10
2018-06-18T08:29:51.718Z,66.20
2018-06-18T08:34:15.897Z,63.41
2018-06-18T08:34:58.405Z,63.60
2018-06-18T08:35:54.381Z,65.91
2018-06-18T08:36:54.482Z,65.81
2018-06-18T08:38:16.407Z,65.14
2018-06-18T08:39:16.407Z,66.01
2018-06-18T08:39:55.411Z,65.14
2018-06-18T08:41:16.407Z,64.86
2018-06-18T08:42:09.905Z,65.05
2018-06-18T08:42:57.904Z,66.01
2018-06-18T08:43:55.907Z,67.07
2018-06-18T08:45:16.905Z,66.58
2018-06-18T08:45:55.518Z,65.72
2018-06-18T08:46:58.404Z,66.24
2018-06-18T08:48:17.406Z,66.58
2018-06-18T08:48:56.406Z,64.50
2018-06-18T08:49:58.907Z,65.46
2018-06-18T08:51:10.906Z,63.60
2018-06-18T08:51:56.905Z,64.86
2018-06-18T08:52:56.905Z,66.24
2018-06-18T08:53:57.405Z,66.04
2018-06-18T08:54:57.406Z,64.89
2018-06-18T08:55:57.405Z,66.14
2018-06-18T08:56:57.417Z,64.79
2018-06-18T08:57:57.907Z,65.37
2018-06-18T09:00:35.804Z,65.08
2018-06-18T09:01:29.812Z,64.02
2018-06-18T09:02:29.811Z,63.64
2018-06-18T09:03:29.287Z,65.11
2018-06-18T09:06:03.579Z,60.97
2018-06-18T09:07:01.559Z,63.70
2018-06-18T09:08:03.561Z,63.12
2018-06-18T09:09:25.059Z,60.90
2018-06-18T09:10:08.056Z,62.54
2018-06-18T09:11:04.065Z,62.25
2018-06-18T09:12:02.059Z,61.61
2018-06-18T09:13:10.019Z,62.25
2018-06-18T09:14:29.559Z,61.22
2018-06-18T09:15:08.560Z,63.21
2018-06-18T09:16:02.124Z,64.08
2018-06-18T09:17:02.158Z,63.44
2018-06-18T09:18:17.062Z,63.54
2018-06-18T09:19:02.413Z,61.61
2018-06-18T09:20:05.060Z,60.83
2018-06-18T09:21:03.599Z,62.48
2018-06-18T09:22:05.560Z,62.12
2018-06-18T09:23:03.558Z,60.86
2018-06-18T09:24:03.038Z,62.60
2018-06-18T09:25:31.060Z,61.77
2018-06-18T09:26:03.300Z,61.19
2018-06-18T09:27:03.422Z,60.48
2018-06-18T09:28:03.538Z,59.61
2018-06-18T09:29:04.571Z,59.52
2018-06-18T09:30:03.792Z,59.32
2018-06-18T09:31:04.559Z,57.14
2018-06-18T09:32:04.077Z,57.90
2018-06-18T09:33:26.060Z,57.42
2018-06-18T09:35:36.509Z,60.13
2018-06-18T09:36:38.458Z,58.29
2018-06-18T09:37:36.457Z,57.42
2018-06-18T09:38:36.084Z,57.35
2018-06-18T09:39:42.958Z,58.80
2018-06-18T09:40:36.955Z,58.80
2018-06-18T09:41:36.957Z,58.51
2018-06-18T09:42:37.464Z,56.29
2018-06-18T09:43:44.889Z,55.52
2018-06-18T09:44:36.835Z,57.35
2018-06-18T09:45:36.940Z,55.90
2018-06-18T09:46:37.976Z,55.42
2018-06-18T09:49:15.351Z,55.33
2018-06-18T09:50:09.521Z,56.39
2018-06-18T09:51:09.852Z,57.74
2018-06-18T09:52:23.851Z,57.29
2018-06-18T09:54:41.243Z,58.51
2018-06-18T09:55:41.268Z,55.81
2018-06-18T09:57:02.241Z,56.41
2018-06-18T09:58:04.718Z,55.42
2018-06-18T09:59:02.746Z,56.32
2018-06-18T09:59:41.746Z,56.39
2018-06-18T10:00:44.255Z,55.26
2018-06-18T10:04:44.201Z,56.41
2018-06-18T10:05:46.944Z,54.29
2018-06-18T10:06:44.415Z,55.16
2018-06-18T10:10:54.121Z,53.33
2018-06-18T10:11:47.475Z,53.52
2018-06-18T10:13:09.163Z,53.52
2018-06-18T10:16:50.535Z,55.26
2018-06-18T10:18:14.259Z,56.61
2018-06-18T10:18:51.251Z,56.96
2018-06-18T10:19:50.856Z,54.46
2018-06-18T10:20:53.684Z,55.42
2018-06-18T10:21:51.751Z,55.33
2018-06-18T10:22:53.253Z,57.14
2018-06-18T10:23:54.250Z,57.14
2018-06-18T10:24:58.072Z,57.23
2018-06-18T10:25:52.251Z,59.74
2018-06-18T10:26:53.268Z,59.45
2018-06-18T10:28:15.765Z,58.39
2018-06-18T10:28:52.747Z,59.45
2018-06-18T10:31:25.695Z,60.41
2018-06-18T10:32:45.263Z,61.77
2018-06-18T10:33:45.266Z,57.90
2018-06-18T10:34:23.874Z,57.23
2018-06-18T10:36:55.430Z,58.97
2018-06-18T10:38:16.524Z,60.71
2018-06-18T10:39:10.637Z,58.48
2018-06-18T10:41:27.913Z,59.06
2018-06-18T10:42:48.918Z,60.10
2018-06-18T10:43:27.913Z,60.80
2018-06-18T10:44:27.615Z,60.51
2018-06-18T10:45:30.411Z,58.77
2018-06-18T10:47:59.065Z,58.36
2018-06-18T10:48:59.820Z,57.59
2018-06-18T10:50:00.307Z,58.10
2018-06-18T10:51:00.310Z,57.81
2018-06-18T10:51:59.539Z,59.35
2018-06-18T10:53:00.311Z,57.74
2018-06-18T10:54:00.310Z,57.06
2018-06-18T10:55:00.812Z,55.81
2018-06-18T10:56:00.869Z,57.06
2018-06-18T10:57:00.890Z,56.99
2018-06-18T10:58:00.809Z,55.71
2018-06-18T10:59:00.812Z,56.48
2018-06-18T11:00:07.698Z,56.48
2018-06-18T11:02:34.173Z,57.81
2018-06-18T11:03:34.729Z,57.14
2018-06-18T11:04:32.749Z,57.52
2018-06-18T11:07:51.006Z,58.77
2018-06-18T11:09:59.383Z,60.22
2018-06-18T11:11:20.394Z,60.61
2018-06-18T11:11:59.891Z,59.16
2018-06-18T11:13:20.890Z,58.87
2018-06-18T11:13:59.891Z,58.00
2018-06-18T11:14:59.903Z,56.96
2018-06-18T11:17:45.684Z,57.54
2018-06-18T11:18:45.688Z,59.58
2018-06-18T11:19:31.681Z,59.09
2018-06-18T11:20:35.112Z,57.84
2018-06-18T11:23:17.524Z,60.28
2018-06-18T11:24:09.530Z,60.18
2018-06-18T11:25:05.496Z,57.48
2018-06-18T11:26:18.105Z,57.19
2018-06-18T11:27:04.082Z,57.29
2018-06-18T11:28:04.047Z,57.21
2018-06-18T11:29:04.027Z,57.12
2018-06-18T11:30:04.577Z,57.57
2018-06-18T11:32:36.889Z,57.87
2018-06-18T11:33:36.386Z,56.61
2018-06-18T11:34:38.354Z,56.99
2018-06-18T11:35:56.922Z,56.22
2018-06-18T11:36:38.426Z,56.51
2018-06-18T11:39:28.838Z,56.41
2018-06-18T11:41:41.873Z,57.62
2018-06-18T11:42:39.841Z,57.71
2018-06-18T11:43:39.198Z,57.90
2018-06-18T11:44:41.841Z,59.38
2018-06-18T11:47:13.565Z,59.93
2018-06-18T11:48:11.034Z,58.29
2018-06-18T11:50:43.233Z,57.93
2018-06-18T11:51:43.717Z,57.35
2018-06-18T11:52:43.479Z,57.84
2018-06-18T11:54:04.743Z,57.06
2018-06-18T11:54:49.742Z,57.74
2018-06-18T11:56:03.986Z,57.74
2018-06-18T11:56:43.745Z,57.74
2018-06-18T11:57:43.945Z,57.35
2018-06-18T11:58:44.243Z,57.16
2018-06-18T12:00:10.676Z,58.80
2018-06-18T12:03:46.474Z,57.54
2018-06-18T12:05:08.183Z,57.38
2018-06-18T12:05:47.175Z,57.48
2018-06-18T12:07:08.723Z,58.06
2018-06-18T12:08:07.919Z,56.93
2018-06-18T12:08:47.687Z,57.21
2018-06-18T12:09:47.756Z,55.57
2018-06-18T12:12:40.436Z,55.79
2018-06-18T12:13:19.442Z,54.61
2018-06-18T12:14:19.443Z,54.51
2018-06-18T12:18:17.285Z,57.24
2018-06-18T12:19:02.410Z,56.57
2018-06-18T12:20:03.279Z,54.35
2018-06-18T12:21:03.280Z,54.25
2018-06-18T12:22:03.282Z,55.87
2018-06-18T12:23:03.823Z,55.19
2018-06-18T12:25:56.195Z,54.90
2018-06-18T12:26:35.201Z,54.22
2018-06-18T12:27:35.195Z,54.41
2018-06-18T12:31:38.387Z,57.12
2018-06-18T12:35:43.218Z,55.65
2018-06-18T12:36:45.225Z,56.45
2018-06-18T12:37:43.740Z,55.45
2018-06-18T12:38:43.725Z,55.55
2018-06-18T12:39:43.726Z,56.71
2018-06-18T12:40:43.204Z,56.41
2018-06-18T12:41:43.749Z,58.83
2018-06-18T12:43:05.236Z,59.41
2018-06-18T12:43:43.591Z,59.70
2018-06-18T12:44:44.226Z,57.29
2018-06-18T12:45:43.829Z,59.02
2018-06-18T12:46:44.018Z,57.12
2018-06-18T12:47:44.784Z,57.96
2018-06-18T12:48:44.729Z,57.12
2018-06-18T12:49:45.228Z,56.15
2018-06-18T12:51:06.226Z,58.95
2018-06-18T12:51:44.584Z,59.76
2018-06-18T12:53:06.263Z,56.09
2018-06-18T12:53:44.843Z,56.47
2018-06-18T12:55:05.942Z,55.51
2018-06-18T12:56:06.727Z,57.73
2018-06-18T12:56:45.726Z,54.83
2018-06-18T12:58:08.159Z,54.53
2018-06-18T12:58:45.472Z,55.53
2018-06-18T13:00:00.235Z,54.63
2018-06-18T13:00:46.227Z,54.83
2018-06-18T13:03:17.291Z,55.53
2018-06-18T13:04:18.002Z,56.50
2018-06-18T13:05:18.002Z,55.27
2018-06-18T13:06:38.588Z,54.59
2018-06-18T13:08:49.856Z,53.33
2018-06-18T13:09:49.865Z,55.07
2018-06-18T13:10:49.346Z,54.59
2018-06-18T13:12:11.363Z,55.36
2018-06-18T13:12:50.363Z,52.73
2018-06-18T13:13:50.361Z,52.73
2018-06-18T13:14:49.848Z,53.69
2018-06-18T13:15:50.863Z,54.57
2018-06-18T13:16:50.868Z,55.34
2018-06-18T13:17:50.863Z,55.43
2018-06-18T13:18:50.864Z,54.47
2018-06-18T13:19:50.470Z,54.15
2018-06-18T13:20:51.363Z,54.35
2018-06-18T13:21:50.719Z,55.31
2018-06-18T13:22:53.295Z,53.57
2018-06-18T13:23:51.863Z,53.64
2018-06-18T13:25:14.864Z,54.99
2018-06-18T13:25:51.864Z,55.47
2018-06-18T13:26:51.865Z,55.87
2018-06-18T13:28:13.364Z,56.05
2018-06-18T13:28:51.592Z,57.41
2018-06-18T13:30:12.676Z,57.21
2018-06-18T13:30:54.362Z,58.40
2018-06-18T13:33:24.023Z,55.09
2018-06-18T13:34:25.464Z,55.29
2018-06-18T13:35:24.040Z,54.63
2018-06-18T13:36:23.642Z,55.31
2018-06-18T13:37:32.962Z,57.41
2018-06-18T13:38:24.566Z,56.57
2018-06-18T13:39:24.530Z,57.73
2018-06-18T13:40:46.029Z,58.60
2018-06-18T13:43:17.190Z,54.51
2018-06-18T13:43:56.296Z,56.35
2018-06-18T13:44:56.926Z,56.54
2018-06-18T13:45:59.426Z,55.47
2018-06-18T13:46:56.763Z,56.35
2018-06-18T13:47:57.427Z,56.45
2018-06-18T13:48:56.941Z,59.44
2018-06-18T13:50:18.926Z,56.18
2018-06-18T13:51:03.922Z,55.21
2018-06-18T13:52:03.927Z,56.67
2018-06-18T13:53:18.388Z,55.41
2018-06-18T13:54:19.426Z,55.53
2018-06-18T13:55:18.640Z,55.24
2018-06-18T13:55:58.432Z,56.04
2018-06-18T13:56:58.428Z,56.52
2018-06-18T13:58:12.937Z,55.40
2018-06-18T13:58:58.930Z,52.49
2018-06-18T14:00:12.959Z,52.68
2018-06-18T14:01:19.928Z,52.85
2018-06-18T14:02:05.426Z,55.36
2018-06-18T14:02:59.428Z,52.85
2018-06-18T14:04:21.866Z,52.08
2018-06-18T14:04:59.428Z,52.17
2018-06-18T14:06:22.932Z,52.27
2018-06-18T14:13:05.958Z,50.96
2018-06-18T14:21:42.881Z,53.55
2018-06-18T14:26:48.754Z,55.85
2018-06-18T14:28:07.778Z,56.72
2018-06-18T14:29:10.255Z,55.46
2018-06-18T14:30:08.261Z,53.59
2018-06-18T14:30:47.254Z,53.69
2018-06-18T14:33:20.905Z,53.50
2018-06-18T14:36:10.681Z,54.95
2018-06-18T14:38:48.942Z,53.91
2018-06-18T14:44:33.927Z,52.68
2018-06-18T14:45:25.982Z,51.90
2018-06-18T14:46:39.983Z,51.81
2018-06-18T14:48:58.556Z,53.72
2018-06-18T14:50:05.086Z,53.91
2018-06-18T14:55:00.825Z,52.22
2018-06-18T14:56:00.888Z,52.80
2018-06-18T14:57:00.833Z,51.54
2018-06-18T14:58:21.422Z,50.77
2018-06-18T14:59:07.334Z,51.06
2018-06-18T15:01:51.054Z,51.76
2018-06-18T15:03:05.026Z,51.67
2018-06-18T15:03:51.171Z,51.09
2018-06-18T15:04:51.536Z,52.80
2018-06-18T15:05:50.772Z,51.45
2018-06-18T15:07:13.957Z,51.93
2018-06-18T15:07:51.526Z,52.44